createdAt,value
2018-09-03T00:02:49.263Z,77.69
2018-09-03T00:08:53.995Z,78.28
2018-09-03T00:14:58.716Z,76.79
2018-09-03T00:21:03.734Z,77.69
2018-09-03T00:27:08.986Z,78.10
2018-09-03T00:33:19.696Z,77.39
2018-09-03T00:39:29.620Z,77.29
2018-09-03T00:45:39.710Z,77.83
2018-09-03T00:51:44.543Z,77.59
2018-09-03T00:57:49.285Z,77.50
2018-09-03T01:03:54.098Z,77.07
2018-09-03T01:09:58.990Z,77.40
2018-09-03T01:16:03.918Z,77.38
2018-09-03T01:22:08.852Z,77.08
2018-09-03T01:28:14.495Z,77.10
2018-09-03T01:34:19.395Z,77.33
2018-09-03T01:40:24.148Z,77.59
2018-09-03T01:46:29.061Z,76.98
2018-09-03T01:52:34.038Z,76.65
2018-09-03T01:58:39.079Z,77.26
2018-09-03T02:04:44.419Z,76.86
2018-09-03T02:10:49.417Z,77.95
2018-09-03T02:16:54.144Z,77.93
2018-09-03T02:22:58.960Z,77.67
2018-09-03T02:29:03.720Z,78.06
2018-09-03T02:35:08.807Z,78.25
2018-09-03T02:41:14.421Z,78.73
2018-09-03T02:47:19.182Z,78.42
2018-09-03T02:53:24.009Z,78.70
2018-09-03T02:59:28.891Z,78.49
2018-09-03T03:05:33.804Z,79.47
2018-09-03T03:11:40.192Z,79.91
2018-09-03T03:17:45.690Z,79.13
2018-09-03T03:23:50.833Z,79.37
2018-09-03T03:29:55.690Z,79.50
2018-09-03T03:36:00.592Z,79.64
2018-09-03T03:42:05.347Z,79.73
2018-09-03T03:48:10.638Z,80.74
2018-09-03T03:54:16.148Z,80.77
2018-09-03T04:00:21.042Z,81.49
2018-09-03T04:06:26.018Z,80.29
2018-09-03T04:12:30.836Z,81.60
2018-09-03T04:18:35.775Z,82.19
2018-09-03T04:24:40.911Z,83.32
2018-09-03T04:30:45.863Z,82.65
2018-09-03T04:36:50.911Z,83.35
2018-09-03T04:42:55.810Z,83.15
2018-09-03T04:49:00.773Z,83.72
2018-09-03T04:55:05.582Z,83.88
2018-09-03T05:01:10.607Z,84.13
2018-09-03T05:07:15.609Z,84.61
2018-09-03T05:13:20.531Z,85.20
2018-09-03T05:19:25.315Z,84.92
2018-09-03T05:25:30.558Z,83.56
2018-09-03T05:31:35.391Z,83.07
2018-09-03T05:37:40.878Z,83.35
2018-09-03T05:43:46.470Z,82.63
2018-09-03T05:49:51.305Z,83.04
2018-09-03T05:55:56.313Z,82.46
2018-09-03T06:02:01.090Z,82.45
2018-09-03T06:08:06.466Z,82.47
2018-09-03T06:14:12.126Z,81.12
2018-09-03T06:20:17.082Z,80.47
2018-09-03T06:26:21.765Z,81.20
2018-09-03T06:32:26.496Z,81.48
2018-09-03T06:38:31.599Z,79.96
2018-09-03T06:44:36.626Z,79.06
2018-09-03T06:50:43.225Z,80.68
2018-09-03T06:56:48.051Z,80.18
2018-09-03T07:02:53.026Z,69.08
2018-09-03T07:08:57.799Z,61.45
2018-09-03T07:15:03.145Z,61.72
2018-09-03T07:21:08.096Z,64.83
2018-09-03T07:27:13.384Z,65.88
2018-09-03T07:33:18.628Z,67.77
2018-09-03T07:39:23.378Z,65.20
2018-09-03T07:45:28.774Z,66.02
2018-09-03T07:51:34.283Z,66.96
2018-09-03T07:57:39.773Z,66.08
2018-09-03T08:03:44.961Z,64.56
2018-09-03T08:09:49.702Z,64.26
2018-09-03T08:15:54.636Z,62.42
2018-09-03T08:21:59.523Z,62.28
2018-09-03T08:28:04.336Z,62.15
2018-09-03T08:34:10.022Z,61.12
2018-09-03T08:40:15.384Z,61.36
2018-09-03T08:46:20.299Z,61.67
2018-09-03T08:52:25.112Z,61.50
2018-09-03T08:58:30.386Z,62.01
2018-09-03T09:04:35.217Z,60.83
2018-09-03T09:10:40.990Z,58.75
2018-09-03T09:16:46.487Z,58.60
2018-09-03T09:22:51.216Z,58.86
2018-09-03T09:28:55.979Z,60.44
2018-09-03T09:35:01.426Z,63.30
2018-09-03T09:41:07.292Z,64.86
2018-09-03T09:47:13.842Z,67.31
2018-09-03T09:53:18.620Z,68.34
2018-09-03T09:59:23.587Z,68.92
2018-09-03T10:05:28.665Z,70.09
2018-09-03T10:11:33.690Z,71.17
2018-09-03T10:17:38.479Z,71.38
2018-09-03T10:23:43.402Z,70.60
2018-09-03T10:29:48.237Z,72.66
2018-09-03T10:35:53.132Z,72.10
2018-09-03T10:41:58.208Z,70.08
2018-09-03T10:48:03.571Z,70.52
2018-09-03T10:54:08.930Z,71.87
2018-09-03T11:00:15.551Z,71.93
2018-09-03T11:06:20.324Z,70.74
2018-09-03T11:12:25.819Z,71.47
2018-09-03T11:18:31.821Z,69.18
2018-09-03T11:24:37.396Z,68.18
2018-09-03T11:30:43.777Z,68.28
2018-09-03T11:36:48.821Z,67.76
2018-09-03T11:42:53.764Z,64.74
2018-09-03T11:48:58.912Z,62.67
2018-09-03T11:55:03.913Z,62.58
2018-09-03T12:01:09.331Z,62.40
2018-09-03T12:07:14.574Z,62.34
2018-09-03T12:13:19.516Z,59.34
2018-09-03T12:19:24.268Z,57.39
2018-09-03T12:25:28.960Z,58.28
2018-09-03T12:31:33.765Z,58.54
2018-09-03T12:37:38.903Z,56.53
2018-09-03T12:43:44.676Z,52.33
2018-09-03T12:49:50.083Z,47.46
2018-09-03T12:55:54.879Z,44.50
2018-09-03T13:01:59.609Z,45.83
2018-09-03T13:08:04.366Z,47.16
2018-09-03T13:14:09.487Z,47.48
2018-09-03T13:20:15.173Z,46.23
2018-09-03T13:26:19.868Z,47.03
2018-09-03T13:32:24.800Z,48.98
2018-09-03T13:38:29.728Z,45.50
2018-09-03T13:44:34.511Z,40.91
2018-09-03T13:50:40.287Z,41.36
2018-09-03T13:56:45.351Z,38.76
2018-09-03T14:02:50.473Z,41.11
2018-09-03T14:08:55.619Z,42.34
2018-09-03T14:15:00.790Z,43.30
2018-09-03T14:21:06.110Z,43.45
2018-09-03T14:27:11.225Z,42.09
2018-09-03T14:33:16.696Z,42.21
2018-09-03T14:39:21.761Z,42.26
2018-09-03T14:45:26.621Z,43.55
2018-09-03T14:51:31.610Z,44.75
2018-09-03T14:57:36.356Z,49.04
2018-09-03T15:03:41.354Z,47.38
2018-09-03T15:09:47.285Z,48.06
2018-09-03T15:15:52.355Z,50.13
2018-09-03T15:21:57.000Z,51.38
2018-09-03T15:28:01.726Z,54.55
2018-09-03T15:34:06.773Z,55.40
2018-09-03T15:40:12.822Z,57.35
2018-09-03T15:46:17.813Z,59.04
2018-09-03T15:52:22.835Z,61.79
2018-09-03T15:58:27.698Z,63.76
2018-09-03T16:04:32.405Z,65.19
2018-09-03T16:17:46.047Z,66.51
2018-09-03T16:23:51.020Z,66.29
2018-09-03T16:29:55.835Z,66.52
2018-09-03T16:36:01.257Z,67.12
2018-09-03T16:42:06.323Z,66.84
2018-09-03T16:48:11.956Z,67.63
2018-09-03T16:54:16.895Z,67.93
2018-09-03T17:00:21.684Z,68.73
2018-09-03T17:06:26.381Z,68.59
2018-09-03T17:12:31.713Z,68.60
2018-09-03T17:18:37.052Z,68.97
2018-09-03T17:24:43.889Z,70.03
2018-09-03T17:30:48.869Z,70.51
2018-09-03T17:36:53.865Z,70.30
2018-09-03T17:42:59.060Z,71.25
2018-09-03T17:49:03.950Z,71.70
2018-09-03T17:55:10.146Z,72.38
2018-09-03T18:01:15.072Z,72.71
2018-09-03T18:07:19.860Z,73.20
2018-09-03T18:13:24.672Z,74.05
2018-09-03T18:19:29.393Z,73.94
2018-09-03T18:25:34.362Z,75.12
2018-09-03T18:31:39.084Z,75.07
2018-09-03T18:37:44.178Z,75.04
2018-09-03T18:43:49.892Z,76.34
2018-09-03T18:49:54.686Z,77.36
2018-09-03T18:55:59.656Z,77.07
2018-09-03T19:02:04.878Z,76.72
2018-09-03T19:08:11.144Z,77.30
2018-09-03T19:14:16.228Z,77.51
2018-09-03T19:20:21.120Z,78.19
2018-09-03T19:26:25.929Z,78.06
2018-09-03T19:32:30.721Z,78.97
2018-09-03T19:38:35.730Z,78.97
2018-09-03T19:44:41.537Z,78.88
2018-09-03T19:50:46.631Z,78.58
2018-09-03T19:56:51.679Z,78.50
2018-09-03T20:02:56.506Z,78.71
2018-09-03T20:09:01.365Z,79.33
2018-09-03T20:15:08.532Z,80.32
2018-09-03T20:21:14.161Z,80.32
2018-09-03T20:27:18.966Z,80.16
2018-09-03T20:33:24.009Z,80.05
2018-09-03T20:39:28.873Z,80.11
2018-09-03T20:45:33.696Z,79.44
2018-09-03T20:51:38.937Z,80.31
2018-09-03T20:57:43.818Z,79.71
2018-09-03T21:03:49.034Z,80.41
2018-09-03T21:09:53.813Z,80.31
2018-09-03T21:15:58.649Z,80.26
2018-09-03T21:22:03.514Z,80.42
2018-09-03T21:28:08.734Z,80.93
2018-09-03T21:34:14.617Z,81.53
2018-09-03T21:40:19.589Z,80.61
2018-09-03T21:46:24.381Z,80.80
2018-09-03T21:52:29.393Z,81.34
2018-09-03T21:58:34.237Z,82.06
2018-09-03T22:04:42.154Z,81.46
2018-09-03T22:10:47.122Z,81.64
2018-09-03T22:16:51.847Z,81.57
2018-09-03T22:22:56.703Z,82.13
2018-09-03T22:29:01.481Z,83.26
2018-09-03T22:35:06.403Z,83.06
2018-09-03T22:41:11.482Z,84.74
2018-09-03T22:47:16.485Z,84.98
2018-09-03T22:53:21.176Z,85.72
2018-09-03T22:59:25.940Z,86.68
2018-09-03T23:05:30.787Z,86.14
2018-09-03T23:11:35.818Z,87.16
2018-09-03T23:17:40.719Z,87.58
2018-09-03T23:23:45.817Z,86.61
2018-09-03T23:29:50.659Z,87.23
2018-09-03T23:35:55.415Z,86.54
2018-09-03T23:42:00.259Z,85.67
2018-09-03T23:48:05.302Z,83.05
2018-09-03T23:54:10.376Z,83.40
